VLVTVLLB

Guest
Details From VLVT - Vientiane Wattay
To VLLB - LUANG PHABANG INTL
Flight Number -
Tags generated
Created
Modified
Stats Distance 117 nm / 217 km
Max Altitude 10,600 ft / 3,231 m
Waypoints 3
Social Downloads 3
Likes 0
Share VATSIM

Download

Looking for another format? Having issues loading an existing format? Contact us
Advertisement - Login to hide

Notes

Basic altitude profile: - Ascent Rate: 2500ft/min - Ascent Speed: 250kts - Cruise Altitude: 35000ft - Cruise Speed: 420kts - Descent Rate: 1500ft/min - Descent Speed: 250kts

Route

VLVT KAASI VLLB

ID Type Via Altitude Latitude Longitude Leg Dist Tot Dist Heading (true) Name
O VLVT APT - 0 ft / 0 m 17.98834˚ 102.56322˚ - 0 nm - Vientiane Wattay
KAASI FIX - 10,600 ft / 3,231 m 19.09944˚ 102.37889˚ 67 nm 67 nm 351° / 351° -
O VLLB APT - 0 ft / 0 m 19.89726˚ 102.16084˚ 49 nm 117 nm 346° / 346° LUANG PHABANG INTL

Altitude Profile

Advertisement - Login to hide

VLVT

Details ICAO VLVT (VTE)
Name Vientiane Wattay
Region Laos
Timezone Asia/Vientiane (UTC+7.0)
Stats Elevation 1,850 ft / 564 m (AMSL)
Location 17.988343° 102.563222°
Runways 1
Magnetic Variation 0.900° W

METAR

VLVT 161500Z 09010KT 3000 BR FEW050 21/12 Q1019 NOSIG

Decode

TAF

TAF TAF VLVT 161100Z 1612/1712 09010KT 4000 BR FEW020 SCT050 TEMPO 1618/1623 3000 BR SCT050 FEW200

Decode

Departure Runways

ID Width Length Bearing (true) Bearing (mag) Surface Threshold Offset Overrun Length
13 148 ft / 45 m 9,862 ft / 3,006 m 135.42° 136.32° Asphalt 0 ft / 0 m 0 ft / 0 m
31 148 ft / 45 m 9,862 ft / 3,006 m 315.42° 316.32° Asphalt 0 ft / 0 m 0 ft / 0 m

VLLB

Details ICAO VLLB (LPQ)
Name LUANG PHABANG INTL
Region Laos
Timezone Asia/Vientiane (UTC+7.0)
Stats Elevation 955 ft / 291 m (AMSL)
Location 19.897255° 102.160844°
Runways 1
Magnetic Variation 0.994° W

METAR

Not found

TAF

TAF VLLB 161100Z 1612/1712 04006KT 7000 SCT018 SCT060 BKN080 TEMPO 1618/1623 5000 BR SCT018 BKN060

Decode

Destination Runways

ID Width Length Bearing (true) Bearing (mag) Surface Threshold Offset Overrun Length
06 148 ft / 45 m 7,224 ft / 2,202 m 61.07° 62.06° Asphalt 0 ft / 0 m 195 ft / 59 m
24 148 ft / 45 m 7,224 ft / 2,202 m 241.07° 242.06° Asphalt 0 ft / 0 m 195 ft / 59 m

Popular Alternatives